Time;durP1;ratioP1;P1;durP2;ratioP2;P2;SDS_P1;SDS_P2;PMS_P1;PMS_P2;Temp;Humidity;BMP_temperature;BMP_pressure;BME280_temperature;BME280_humidity;BME280_pressure;Samples;Min_cycle;Max_cycle;Signal;HPM_P1;HPM_P2
2021/12/20 00:00:01;;;;;;;0.20;0.20;;;;;;;;;;5044396;28;20243;-68
2021/12/20 00:02:27;;;;;;;0.20;0.20;;;;;;;;;;5044420;28;20254;-67
2021/12/20 00:04:53;;;;;;;0.20;0.20;;;;;;;;;;5044294;28;20224;-68
2021/12/20 00:07:20;;;;;;;0.20;0.20;;;;;;;;;;5044310;28;20223;-67
2021/12/20 00:09:47;;;;;;;0.20;0.20;;;;;;;;;;5044220;28;20211;-67
2021/12/20 00:12:13;;;;;;;0.20;0.20;;;;;;;;;;5044175;28;20211;-67
2021/12/20 00:14:41;;;;;;;0.20;0.20;;;;;;;;;;5044102;28;20241;-68
2021/12/20 00:17:07;;;;;;;0.20;0.20;;;;;;;;;;5044293;28;20247;-68
2021/12/20 00:19:33;;;;;;;0.20;0.20;;;;;;;;;;5044329;28;20207;-69
2021/12/20 00:21:59;;;;;;;0.20;0.20;;;;;;;;;;5044277;28;20326;-68
2021/12/20 00:24:26;;;;;;;0.20;0.20;;;;;;;;;;5044184;28;20420;-68
2021/12/20 00:26:52;;;;;;;0.20;0.20;;;;;;;;;;5044130;28;20199;-68
2021/12/20 00:29:18;;;;;;;0.20;0.20;;;;;;;;;;5044118;28;20273;-68
2021/12/20 00:31:46;;;;;;;0.20;0.20;;;;;;;;;;5043591;28;20263;-68
2021/12/20 00:34:12;;;;;;;0.20;0.20;;;;;;;;;;5044025;28;20422;-67
2021/12/20 00:36:38;;;;;;;0.20;0.20;;;;;;;;;;5025402;28;20442;-68
2021/12/20 00:41:48;;;;;;;0.20;0.20;;;;;;;;;;5024155;28;20221;-67
2021/12/20 00:44:14;;;;;;;0.20;0.20;;;;;;;;;;5024003;28;20229;-69
2021/12/20 00:46:41;;;;;;;0.20;0.20;;;;;;;;;;5024121;28;20259;-69
2021/12/20 00:49:08;;;;;;;0.20;0.20;;;;;;;;;;5042986;28;20208;-68
2021/12/20 00:51:34;;;;;;;0.20;0.20;;;;;;;;;;5043237;28;20204;-68
2021/12/20 00:54:01;;;;;;;0.20;0.20;;;;;;;;;;5043372;28;20269;-68
2021/12/20 00:56:27;;;;;;;0.20;0.20;;;;;;;;;;5043276;28;20204;-67
2021/12/20 00:58:53;;;;;;;0.20;0.20;;;;;;;;;;5043410;28;20205;-68
2021/12/20 01:01:19;;;;;;;0.20;0.20;;;;;;;;;;5043594;28;20204;-67
2021/12/20 01:03:45;;;;;;;0.20;0.20;;;;;;;;;;5043153;28;20220;-69
2021/12/20 01:06:14;;;;;;;0.20;0.20;;;;;;;;;;5042935;28;20245;-68
2021/12/20 01:08:41;;;;;;;0.20;0.20;;;;;;;;;;5043474;28;20206;-68
2021/12/20 01:11:08;;;;;;;0.20;0.20;;;;;;;;;;5043388;28;20204;-67
2021/12/20 01:13:40;;;;;;;0.20;0.20;;;;;;;;;;5043292;28;20201;-68
2021/12/20 01:16:07;;;;;;;0.20;0.20;;;;;;;;;;5043294;28;20279;-67
2021/12/20 01:18:33;;;;;;;0.20;0.20;;;;;;;;;;5043303;28;20208;-68
2021/12/20 01:20:59;;;;;;;0.20;0.20;;;;;;;;;;5043305;28;20208;-67
2021/12/20 01:23:27;;;;;;;0.20;0.20;;;;;;;;;;5042986;28;20280;-68
2021/12/20 01:25:53;;;;;;;0.20;0.20;;;;;;;;;;5042979;28;20270;-67
2021/12/20 01:28:19;;;;;;;0.20;0.20;;;;;;;;;;5043069;28;20427;-67
2021/12/20 01:30:46;;;;;;;0.20;0.20;;;;;;;;;;5042785;28;20435;-68
2021/12/20 01:33:13;;;;;;;1.07;1.07;;;;;;;;;;5042841;28;20201;-68
2021/12/20 01:35:40;;;;;;;0.20;0.20;;;;;;;;;;5042311;28;20201;-68
2021/12/20 01:38:07;;;;;;;0.20;0.20;;;;;;;;;;5042725;28;20204;-67
2021/12/20 01:40:36;;;;;;;0.20;0.20;;;;;;;;;;5042160;28;20224;-68
2021/12/20 01:43:04;;;;;;;0.20;0.20;;;;;;;;;;5042674;28;20204;-68
2021/12/20 01:45:30;;;;;;;0.20;0.20;;;;;;;;;;5042293;28;20210;-68
2021/12/20 01:48:04;;;;;;;0.20;0.20;;;;;;;;;;5042635;28;20426;-68
2021/12/20 01:50:41;;;;;;;0.20;0.20;;;;;;;;;;5042902;28;20260;-68
2021/12/20 01:53:08;;;;;;;0.20;0.20;;;;;;;;;;5042847;28;20588;-67
2021/12/20 01:55:35;;;;;;;0.20;0.20;;;;;;;;;;5042821;28;20205;-68
2021/12/20 01:58:01;;;;;;;0.20;0.20;;;;;;;;;;5042402;28;20209;-68
2021/12/20 02:00:28;;;;;;;0.20;0.20;;;;;;;;;;5042650;28;20205;-68
2021/12/20 02:02:59;;;;;;;0.20;0.20;;;;;;;;;;5042278;28;20232;-67
2021/12/20 02:05:34;;;;;;;0.20;0.20;;;;;;;;;;5042403;28;20271;-68
2021/12/20 02:08:13;;;;;;;0.47;0.47;;;;;;;;;;5023557;28;20202;-68
2021/12/20 02:10:41;;;;;;;0.20;0.20;;;;;;;;;;5022615;28;20232;-68
2021/12/20 02:13:07;;;;;;;0.20;0.20;;;;;;;;;;5022648;28;20209;-68
2021/12/20 02:15:33;;;;;;;0.20;0.20;;;;;;;;;;5027842;28;20232;-67
2021/12/20 02:17:59;;;;;;;0.20;0.20;;;;;;;;;;5042663;28;20227;-67
2021/12/20 02:20:29;;;;;;;0.20;0.20;;;;;;;;;;5041686;28;20202;-67
2021/12/20 02:22:56;;;;;;;0.20;0.20;;;;;;;;;;5042567;28;20322;-69
2021/12/20 02:25:22;;;;;;;0.20;0.20;;;;;;;;;;5042311;28;20291;-68
2021/12/20 02:27:49;;;;;;;0.20;0.20;;;;;;;;;;5042591;28;20216;-69
2021/12/20 02:30:37;;;;;;;0.20;0.20;;;;;;;;;;5042936;28;20518;-70
2021/12/20 02:38:35;;;;;;;0.20;0.20;;;;;;;;;;5041090;28;20200;-67
2021/12/20 02:41:05;;;;;;;0.20;0.20;;;;;;;;;;5042240;28;20205;-67
2021/12/20 02:43:35;;;;;;;0.20;0.20;;;;;;;;;;5042352;28;20216;-67
2021/12/20 02:46:04;;;;;;;0.20;0.20;;;;;;;;;;5042272;28;20386;-67
2021/12/20 02:48:30;;;;;;;0.20;0.20;;;;;;;;;;5042089;28;20204;-67
2021/12/20 02:50:58;;;;;;;0.20;0.20;;;;;;;;;;5042213;28;20205;-68
2021/12/20 02:53:24;;;;;;;0.20;0.20;;;;;;;;;;5041858;28;20196;-68
2021/12/20 02:55:50;;;;;;;0.20;0.20;;;;;;;;;;5043942;28;20204;-68
2021/12/20 02:58:17;;;;;;;0.27;0.27;;;;;;;;;;5045397;28;20507;-68
2021/12/20 03:00:43;;;;;;;0.20;0.20;;;;;;;;;;5045713;28;20205;-67
2021/12/20 03:03:09;;;;;;;0.20;0.20;;;;;;;;;;5045440;28;20204;-69
2021/12/20 03:05:36;;;;;;;0.20;0.20;;;;;;;;;;5045112;28;20228;-68
2021/12/20 03:08:04;;;;;;;0.20;0.20;;;;;;;;;;5045018;28;20201;-68
2021/12/20 03:10:31;;;;;;;0.20;0.20;;;;;;;;;;5045650;28;20284;-68
2021/12/20 03:12:58;;;;;;;0.20;0.20;;;;;;;;;;5044718;28;20208;-67
2021/12/20 03:15:26;;;;;;;0.20;0.20;;;;;;;;;;5045432;28;20211;-67
2021/12/20 03:17:54;;;;;;;0.20;0.20;;;;;;;;;;5045307;28;20212;-68
2021/12/20 03:20:21;;;;;;;0.20;0.20;;;;;;;;;;5045000;28;20473;-68
2021/12/20 03:22:48;;;;;;;0.20;0.20;;;;;;;;;;5045118;28;20209;-68
2021/12/20 03:25:15;;;;;;;0.20;0.20;;;;;;;;;;5045190;28;20224;-68
2021/12/20 03:27:42;;;;;;;0.20;0.20;;;;;;;;;;5045337;28;20204;-67
2021/12/20 03:30:10;;;;;;;0.20;0.20;;;;;;;;;;5045120;28;20397;-68
2021/12/20 03:32:36;;;;;;;0.20;0.20;;;;;;;;;;5045204;28;20205;-68
2021/12/20 03:35:03;;;;;;;0.20;0.20;;;;;;;;;;5045194;28;20210;-68
2021/12/20 03:37:29;;;;;;;0.20;0.20;;;;;;;;;;5045098;28;20212;-67
2021/12/20 03:39:56;;;;;;;0.20;0.20;;;;;;;;;;5044769;28;20208;-67
2021/12/20 03:42:26;;;;;;;0.20;0.20;;;;;;;;;;5045080;28;20444;-68
2021/12/20 03:44:52;;;;;;;0.20;0.20;;;;;;;;;;5044875;28;20221;-67
2021/12/20 03:47:18;;;;;;;0.20;0.20;;;;;;;;;;5044910;28;20504;-67
2021/12/20 03:49:44;;;;;;;0.20;0.20;;;;;;;;;;5044917;28;20205;-68
2021/12/20 03:52:11;;;;;;;0.20;0.20;;;;;;;;;;5044457;28;20228;-69
2021/12/20 03:54:38;;;;;;;0.20;0.20;;;;;;;;;;5044693;28;20196;-68
2021/12/20 03:57:05;;;;;;;0.20;0.20;;;;;;;;;;5044863;28;20206;-69
2021/12/20 03:59:33;;;;;;;0.20;0.20;;;;;;;;;;5044343;28;20204;-68
2021/12/20 04:01:59;;;;;;;0.20;0.20;;;;;;;;;;5044888;28;20243;-68
2021/12/20 04:04:26;;;;;;;0.20;0.20;;;;;;;;;;5044256;28;20232;-68
2021/12/20 04:06:52;;;;;;;0.20;0.20;;;;;;;;;;5043139;28;20236;-68
2021/12/20 04:09:18;;;;;;;0.20;0.20;;;;;;;;;;5044525;28;20500;-68
2021/12/20 04:11:44;;;;;;;0.20;0.20;;;;;;;;;;5044524;28;20244;-68
2021/12/20 04:14:10;;;;;;;0.20;0.20;;;;;;;;;;5044443;28;20201;-68
2021/12/20 04:16:38;;;;;;;0.20;0.20;;;;;;;;;;5044419;28;20205;-68
2021/12/20 04:19:04;;;;;;;0.20;0.20;;;;;;;;;;5044284;28;20468;-68
2021/12/20 04:21:31;;;;;;;0.20;0.20;;;;;;;;;;5043988;28;20253;-68
2021/12/20 04:23:57;;;;;;;0.20;0.20;;;;;;;;;;5044071;28;20234;-68
2021/12/20 04:26:23;;;;;;;0.23;0.23;;;;;;;;;;5044118;28;20205;-68
2021/12/20 04:28:49;;;;;;;0.20;0.20;;;;;;;;;;5044090;28;20230;-68
2021/12/20 04:31:16;;;;;;;0.20;0.20;;;;;;;;;;5043659;28;20205;-68
2021/12/20 04:33:43;;;;;;;0.20;0.20;;;;;;;;;;5044048;28;20392;-68
2021/12/20 04:36:09;;;;;;;0.20;0.20;;;;;;;;;;5043999;28;20204;-68
2021/12/20 04:38:36;;;;;;;0.20;0.20;;;;;;;;;;5043650;28;20399;-68
2021/12/20 04:41:02;;;;;;;0.20;0.20;;;;;;;;;;5044046;28;20209;-69
2021/12/20 04:43:28;;;;;;;0.20;0.20;;;;;;;;;;5043929;28;20259;-68
2021/12/20 04:45:54;;;;;;;0.20;0.20;;;;;;;;;;5043689;28;20224;-68
2021/12/20 04:48:21;;;;;;;0.20;0.20;;;;;;;;;;5043191;28;20229;-67
2021/12/20 04:50:48;;;;;;;0.20;0.20;;;;;;;;;;5043358;28;20228;-67
2021/12/20 04:53:14;;;;;;;0.20;0.20;;;;;;;;;;5043353;28;20258;-68
2021/12/20 04:55:41;;;;;;;0.20;0.20;;;;;;;;;;5043318;28;20266;-69
2021/12/20 04:58:07;;;;;;;0.20;0.20;;;;;;;;;;5043602;28;20209;-67
2021/12/20 05:00:34;;;;;;;0.20;0.20;;;;;;;;;;5043163;28;20270;-67
2021/12/20 05:03:00;;;;;;;0.20;0.20;;;;;;;;;;5043240;28;20447;-67
2021/12/20 05:05:28;;;;;;;0.20;0.20;;;;;;;;;;5042490;28;20282;-67
2021/12/20 05:07:56;;;;;;;0.20;0.20;;;;;;;;;;5043508;28;20200;-67
2021/12/20 05:10:27;;;;;;;0.20;0.20;;;;;;;;;;5043347;28;20208;-67
2021/12/20 05:12:54;;;;;;;0.20;0.20;;;;;;;;;;5043041;28;20193;-67
2021/12/20 05:15:20;;;;;;;0.20;0.20;;;;;;;;;;5043255;28;20201;-67
2021/12/20 05:17:47;;;;;;;0.20;0.20;;;;;;;;;;5042997;28;20205;-68
2021/12/20 05:20:13;;;;;;;0.20;0.20;;;;;;;;;;5043342;28;20204;-68
2021/12/20 05:22:39;;;;;;;0.20;0.20;;;;;;;;;;5043368;28;20210;-68
2021/12/20 05:25:10;;;;;;;0.20;0.20;;;;;;;;;;5042364;28;20463;-68
2021/12/20 05:27:36;;;;;;;0.23;0.23;;;;;;;;;;5043519;28;20263;-69
2021/12/20 05:30:03;;;;;;;0.27;0.27;;;;;;;;;;5042636;28;20204;-68
2021/12/20 05:32:30;;;;;;;0.20;0.20;;;;;;;;;;5042719;28;20212;-68
2021/12/20 05:34:56;;;;;;;0.20;0.20;;;;;;;;;;5040423;28;20362;-69
2021/12/20 05:37:22;;;;;;;0.20;0.20;;;;;;;;;;5041902;28;20208;-68
2021/12/20 05:39:48;;;;;;;0.20;0.20;;;;;;;;;;5042665;28;20201;-69
2021/12/20 05:42:16;;;;;;;0.20;0.20;;;;;;;;;;5042827;28;20205;-68
2021/12/20 05:44:42;;;;;;;0.20;0.20;;;;;;;;;;5042959;28;20224;-68
2021/12/20 05:47:09;;;;;;;0.20;0.20;;;;;;;;;;5043042;28;20213;-68
2021/12/20 05:49:35;;;;;;;0.20;0.20;;;;;;;;;;5042962;28;20404;-68
2021/12/20 05:52:03;;;;;;;0.20;0.20;;;;;;;;;;5042851;28;20204;-68
2021/12/20 05:54:29;;;;;;;0.20;0.20;;;;;;;;;;5042499;28;20201;-68
2021/12/20 05:56:55;;;;;;;0.20;0.20;;;;;;;;;;5042802;28;20395;-67
2021/12/20 05:59:23;;;;;;;0.20;0.20;;;;;;;;;;5042386;28;20204;-68
2021/12/20 06:01:49;;;;;;;0.20;0.20;;;;;;;;;;5042663;28;20500;-68
2021/12/20 06:04:15;;;;;;;0.20;0.20;;;;;;;;;;5042247;28;20208;-68
2021/12/20 06:06:41;;;;;;;0.20;0.20;;;;;;;;;;5042158;28;20229;-68
2021/12/20 06:09:08;;;;;;;0.20;0.20;;;;;;;;;;5042741;28;20204;-68
2021/12/20 06:11:34;;;;;;;0.20;0.20;;;;;;;;;;5042236;28;20200;-68
2021/12/20 06:14:00;;;;;;;0.20;0.20;;;;;;;;;;5042526;28;20393;-67
2021/12/20 06:16:28;;;;;;;0.20;0.20;;;;;;;;;;5042676;28;20200;-68
2021/12/20 06:18:54;;;;;;;0.20;0.20;;;;;;;;;;5042697;28;20263;-68
2021/12/20 06:21:20;;;;;;;0.20;0.20;;;;;;;;;;5042364;28;20215;-67
2021/12/20 06:23:46;;;;;;;0.20;0.20;;;;;;;;;;5034563;28;20443;-68
2021/12/20 06:26:13;;;;;;;0.20;0.20;;;;;;;;;;5022516;28;20225;-68
2021/12/20 06:28:39;;;;;;;0.20;0.20;;;;;;;;;;5022897;28;20381;-68
2021/12/20 06:31:05;;;;;;;0.20;0.20;;;;;;;;;;5025148;28;20221;-68
2021/12/20 06:33:33;;;;;;;0.20;0.20;;;;;;;;;;5026571;28;20248;-68
2021/12/20 06:35:59;;;;;;;0.20;0.20;;;;;;;;;;5026519;28;20201;-68
2021/12/20 06:38:25;;;;;;;0.20;0.20;;;;;;;;;;5026223;28;20225;-68
2021/12/20 06:40:52;;;;;;;0.20;0.20;;;;;;;;;;5026370;28;20205;-68
2021/12/20 06:43:19;;;;;;;0.20;0.20;;;;;;;;;;5026374;28;20205;-69
2021/12/20 06:45:46;;;;;;;0.20;0.20;;;;;;;;;;5025938;28;20221;-68
2021/12/20 06:48:13;;;;;;;0.20;0.20;;;;;;;;;;5026319;28;20469;-68
2021/12/20 06:50:41;;;;;;;0.20;0.20;;;;;;;;;;5026269;28;20205;-68
2021/12/20 06:53:07;;;;;;;0.20;0.20;;;;;;;;;;5026132;28;20213;-68
2021/12/20 06:55:34;;;;;;;0.20;0.20;;;;;;;;;;5031668;28;20215;-69
2021/12/20 06:58:00;;;;;;;0.20;0.20;;;;;;;;;;5045361;28;20392;-68
2021/12/20 07:00:27;;;;;;;0.30;0.30;;;;;;;;;;5045396;28;20204;-69
2021/12/20 07:02:53;;;;;;;0.30;0.30;;;;;;;;;;5044873;28;20385;-68
2021/12/20 07:05:19;;;;;;;0.20;0.20;;;;;;;;;;5044772;28;20233;-69
2021/12/20 07:07:47;;;;;;;0.20;0.20;;;;;;;;;;5045067;28;20197;-68
2021/12/20 07:10:13;;;;;;;0.20;0.20;;;;;;;;;;5045227;28;20251;-68
2021/12/20 07:12:39;;;;;;;0.20;0.20;;;;;;;;;;5044843;28;20216;-69
2021/12/20 07:15:09;;;;;;;0.20;0.20;;;;;;;;;;5045376;28;20242;-68
2021/12/20 07:17:35;;;;;;;0.20;0.20;;;;;;;;;;5045986;28;20228;-68
2021/12/20 07:20:02;;;;;;;0.20;0.20;;;;;;;;;;5045417;28;20263;-69
2021/12/20 07:22:28;;;;;;;0.20;0.20;;;;;;;;;;5045471;28;20246;-69
2021/12/20 07:24:55;;;;;;;0.20;0.20;;;;;;;;;;5044934;28;20224;-68
2021/12/20 07:27:22;;;;;;;3.20;2.87;;;;;;;;;;5044968;28;20250;-68
2021/12/20 07:29:48;;;;;;;0.20;0.20;;;;;;;;;;5044897;28;20206;-68
2021/12/20 07:32:14;;;;;;;0.20;0.20;;;;;;;;;;5045216;28;20421;-68
2021/12/20 07:34:41;;;;;;;0.30;0.30;;;;;;;;;;5044901;28;20208;-68
2021/12/20 07:37:07;;;;;;;0.20;0.20;;;;;;;;;;5045145;28;20262;-68
2021/12/20 07:39:34;;;;;;;0.20;0.20;;;;;;;;;;5044969;28;20205;-69
2021/12/20 07:42:01;;;;;;;0.20;0.20;;;;;;;;;;5043537;28;20566;-68
2021/12/20 07:44:28;;;;;;;0.20;0.20;;;;;;;;;;5044367;28;20254;-68
2021/12/20 07:46:54;;;;;;;0.20;0.20;;;;;;;;;;5044378;28;20228;-70
2021/12/20 07:49:20;;;;;;;0.20;0.20;;;;;;;;;;5044578;28;20227;-69
2021/12/20 07:51:46;;;;;;;0.20;0.20;;;;;;;;;;5044204;28;20209;-69
2021/12/20 07:54:12;;;;;;;0.20;0.20;;;;;;;;;;5044413;28;20202;-68
2021/12/20 07:56:39;;;;;;;0.20;0.20;;;;;;;;;;5044461;28;20201;-68
2021/12/20 07:59:07;;;;;;;0.20;0.20;;;;;;;;;;5044702;28;20204;-68
2021/12/20 08:01:34;;;;;;;0.20;0.20;;;;;;;;;;5044433;28;20211;-68
2021/12/20 08:04:01;;;;;;;0.20;0.20;;;;;;;;;;5044282;28;20205;-68
2021/12/20 08:06:27;;;;;;;0.20;0.20;;;;;;;;;;5044245;28;20578;-68
2021/12/20 08:08:53;;;;;;;0.20;0.20;;;;;;;;;;5044576;28;20204;-68
2021/12/20 08:11:20;;;;;;;0.20;0.20;;;;;;;;;;5044155;28;20254;-68
2021/12/20 08:13:46;;;;;;;0.23;0.23;;;;;;;;;;5044372;28;20227;-70
2021/12/20 08:16:14;;;;;;;0.20;0.20;;;;;;;;;;5029643;28;20197;-68
2021/12/20 08:18:40;;;;;;;0.97;0.97;;;;;;;;;;5028726;28;20209;-69
2021/12/20 08:21:06;;;;;;;0.20;0.20;;;;;;;;;;5030669;28;20251;-68
2021/12/20 08:23:32;;;;;;;0.20;0.20;;;;;;;;;;5029957;28;20206;-68
2021/12/20 08:25:59;;;;;;;0.20;0.20;;;;;;;;;;5038992;28;20282;-68
2021/12/20 08:28:25;;;;;;;0.20;0.20;;;;;;;;;;5029264;28;20267;-68
2021/12/20 08:30:51;;;;;;;0.20;0.20;;;;;;;;;;5029081;28;20314;-70
2021/12/20 08:33:19;;;;;;;0.20;0.20;;;;;;;;;;5035559;28;20223;-68
2021/12/20 08:35:49;;;;;;;0.20;0.20;;;;;;;;;;5026894;28;20239;-68
2021/12/20 08:38:15;;;;;;;0.20;0.20;;;;;;;;;;5024724;28;20205;-70
2021/12/20 08:40:42;;;;;;;0.20;0.20;;;;;;;;;;5029273;28;20202;-69
2021/12/20 08:43:08;;;;;;;0.20;0.20;;;;;;;;;;5034602;28;20212;-69
2021/12/20 08:45:34;;;;;;;0.20;0.20;;;;;;;;;;5029117;28;20260;-68
2021/12/20 08:48:01;;;;;;;0.20;0.20;;;;;;;;;;5037865;28;20204;-68
2021/12/20 08:50:28;;;;;;;0.20;0.20;;;;;;;;;;5035783;28;20213;-70
2021/12/20 08:52:55;;;;;;;0.20;0.20;;;;;;;;;;5042511;28;20208;-68
2021/12/20 08:55:21;;;;;;;0.20;0.20;;;;;;;;;;5028424;28;20202;-68
2021/12/20 08:57:48;;;;;;;0.20;0.20;;;;;;;;;;5037142;28;20204;-68
2021/12/20 09:00:16;;;;;;;0.20;0.20;;;;;;;;;;5026260;28;20206;-67
2021/12/20 09:02:43;;;;;;;0.20;0.20;;;;;;;;;;5037776;28;20251;-67
2021/12/20 09:05:09;;;;;;;0.27;0.27;;;;;;;;;;5041326;28;20204;-69
2021/12/20 09:07:40;;;;;;;0.20;0.20;;;;;;;;;;5027687;28;20243;-67
2021/12/20 09:10:08;;;;;;;0.20;0.20;;;;;;;;;;5035876;28;20200;-70
2021/12/20 09:12:34;;;;;;;0.20;0.20;;;;;;;;;;5028870;28;20206;-68
2021/12/20 09:15:01;;;;;;;0.20;0.20;;;;;;;;;;5023147;28;20252;-68
2021/12/20 09:17:27;;;;;;;0.50;0.50;;;;;;;;;;5033796;28;20249;-68
2021/12/20 09:19:54;;;;;;;0.20;0.20;;;;;;;;;;5043155;28;20328;-68
2021/12/20 09:22:26;;;;;;;0.20;0.20;;;;;;;;;;5042660;28;20202;-70
2021/12/20 09:24:54;;;;;;;0.10;0.10;;;;;;;;;;5039050;28;20203;-66
2021/12/20 09:27:20;;;;;;;0.20;0.20;;;;;;;;;;5042862;28;20230;-73
2021/12/20 09:29:46;;;;;;;0.10;0.10;;;;;;;;;;5042537;28;20273;-70
2021/12/20 09:32:13;;;;;;;0.20;0.20;;;;;;;;;;5042523;28;20204;-70
2021/12/20 09:34:39;;;;;;;0.20;0.20;;;;;;;;;;5030019;28;20263;-69
2021/12/20 09:37:07;;;;;;;0.10;0.10;;;;;;;;;;5042773;28;20222;-69
2021/12/20 09:39:37;;;;;;;0.10;0.10;;;;;;;;;;5031700;28;20406;-70
2021/12/20 09:42:05;;;;;;;0.10;0.10;;;;;;;;;;5035119;28;20204;-67
2021/12/20 09:44:32;;;;;;;0.10;0.10;;;;;;;;;;5037744;28;20205;-69
2021/12/20 09:47:00;;;;;;;0.10;0.10;;;;;;;;;;5042111;28;20227;-69
2021/12/20 09:49:28;;;;;;;0.10;0.10;;;;;;;;;;5036765;28;20201;-70
2021/12/20 09:51:57;;;;;;;0.10;0.10;;;;;;;;;;5025741;28;20219;-69
2021/12/20 09:54:23;;;;;;;1.13;1.13;;;;;;;;;;5026519;28;20202;-69
2021/12/20 09:56:52;;;;;;;0.10;0.10;;;;;;;;;;5036207;28;20201;-67
2021/12/20 09:59:20;;;;;;;0.50;0.50;;;;;;;;;;5024711;28;20201;-69
2021/12/20 10:01:48;;;;;;;0.10;0.10;;;;;;;;;;5028755;28;20255;-69
2021/12/20 10:04:14;;;;;;;0.10;0.10;;;;;;;;;;5032921;28;20203;-68
2021/12/20 10:06:41;;;;;;;0.10;0.10;;;;;;;;;;5034494;28;20244;-68
2021/12/20 10:09:12;;;;;;;0.10;0.10;;;;;;;;;;5028227;28;20434;-69
2021/12/20 10:11:39;;;;;;;0.10;0.10;;;;;;;;;;5028619;28;20268;-69
2021/12/20 10:14:06;;;;;;;0.27;0.27;;;;;;;;;;5046175;28;20445;-70
2021/12/20 10:16:35;;;;;;;0.10;0.10;;;;;;;;;;5046385;28;20202;-69
2021/12/20 10:19:01;;;;;;;0.10;0.10;;;;;;;;;;5046466;28;20211;-70
2021/12/20 10:21:34;;;;;;;0.10;0.10;;;;;;;;;;5046690;28;20207;-70
2021/12/20 10:24:00;;;;;;;0.10;0.10;;;;;;;;;;5046572;28;20233;-70
2021/12/20 10:26:26;;;;;;;0.10;0.10;;;;;;;;;;5046442;28;20293;-70
2021/12/20 10:28:53;;;;;;;0.10;0.10;;;;;;;;;;5046507;28;20207;-70
2021/12/20 10:31:20;;;;;;;0.10;0.10;;;;;;;;;;5045982;28;20207;-70
2021/12/20 10:33:53;;;;;;;0.10;0.10;;;;;;;;;;5046384;28;20394;-70
2021/12/20 10:36:19;;;;;;;0.10;0.10;;;;;;;;;;5046021;28;20196;-68
2021/12/20 10:38:46;;;;;;;0.10;0.10;;;;;;;;;;5046054;28;20203;-69
2021/12/20 10:41:16;;;;;;;0.10;0.10;;;;;;;;;;5046246;28;20275;-70
2021/12/20 10:43:48;;;;;;;0.10;0.10;;;;;;;;;;5034426;28;20477;-70
2021/12/20 10:46:16;;;;;;;0.10;0.10;;;;;;;;;;5039913;28;20405;-68
2021/12/20 10:48:43;;;;;;;0.10;0.10;;;;;;;;;;5037519;28;20503;-68
2021/12/20 10:51:17;;;;;;;0.10;0.10;;;;;;;;;;5039568;28;20201;-70
2021/12/20 10:53:45;;;;;;;0.10;0.10;;;;;;;;;;5028666;28;20242;-70
2021/12/20 10:56:11;;;;;;;0.10;0.10;;;;;;;;;;5044287;28;20211;-70
2021/12/20 10:58:38;;;;;;;0.10;0.10;;;;;;;;;;5045551;28;20299;-69
2021/12/20 11:01:06;;;;;;;0.10;0.10;;;;;;;;;;5034191;28;20211;-68
2021/12/20 11:03:38;;;;;;;0.10;0.10;;;;;;;;;;5045665;28;20489;-68
2021/12/20 11:09:13;;;;;;;0.10;0.10;;;;;;;;;;4965508;28;20237;-68
2021/12/20 11:11:40;;;;;;;0.10;0.10;;;;;;;;;;4965313;29;20500;-69
2021/12/20 11:14:08;;;;;;;0.10;0.10;;;;;;;;;;5003775;28;20331;-68
2021/12/20 11:16:36;;;;;;;0.10;0.10;;;;;;;;;;5045461;28;20225;-68
2021/12/20 11:19:09;;;;;;;0.10;0.10;;;;;;;;;;5045256;28;20228;-69
2021/12/20 11:21:36;;;;;;;0.10;0.10;;;;;;;;;;5045505;28;20206;-69
2021/12/20 11:24:02;;;;;;;0.10;0.10;;;;;;;;;;5045372;28;20493;-68
2021/12/20 11:26:31;;;;;;;0.10;0.10;;;;;;;;;;5045021;28;20228;-68
2021/12/20 11:28:58;;;;;;;0.10;0.10;;;;;;;;;;5045428;28;20255;-68
2021/12/20 11:31:24;;;;;;;0.10;0.10;;;;;;;;;;5044984;28;20208;-73
2021/12/20 11:33:50;;;;;;;0.10;0.10;;;;;;;;;;5045018;28;20516;-74
2021/12/20 11:36:18;;;;;;;0.10;0.10;;;;;;;;;;5045233;28;20270;-74
2021/12/20 11:38:44;;;;;;;0.10;0.10;;;;;;;;;;5044903;28;20402;-73
2021/12/20 11:41:10;;;;;;;0.10;0.10;;;;;;;;;;5044259;28;20216;-73
2021/12/20 11:43:39;;;;;;;0.10;0.10;;;;;;;;;;5044623;28;20247;-72
2021/12/20 11:46:07;;;;;;;0.10;0.10;;;;;;;;;;5033107;28;20499;-73
2021/12/20 11:48:35;;;;;;;0.10;0.10;;;;;;;;;;5044494;28;20209;-72
2021/12/20 11:51:03;;;;;;;0.10;0.10;;;;;;;;;;5044981;28;20205;-73
2021/12/20 11:53:35;;;;;;;0.10;0.10;;;;;;;;;;5044825;28;20242;-74
2021/12/20 11:56:01;;;;;;;0.10;0.10;;;;;;;;;;5044718;28;20360;-73
2021/12/20 11:58:28;;;;;;;0.10;0.10;;;;;;;;;;5044535;28;20211;-73
2021/12/20 12:00:57;;;;;;;0.20;0.20;;;;;;;;;;5044408;28;20208;-72
2021/12/20 12:03:24;;;;;;;0.10;0.10;;;;;;;;;;5044404;28;20208;-72
2021/12/20 12:05:51;;;;;;;0.17;0.17;;;;;;;;;;5040997;28;20574;-73
2021/12/20 12:08:22;;;;;;;0.10;0.10;;;;;;;;;;5044431;28;20415;-72
2021/12/20 12:10:48;;;;;;;0.20;0.20;;;;;;;;;;5044573;28;20205;-73
2021/12/20 12:13:16;;;;;;;0.10;0.10;;;;;;;;;;5029541;28;20263;-73
2021/12/20 12:15:52;;;;;;;0.20;0.20;;;;;;;;;;5024640;28;20209;-74
2021/12/20 12:18:19;;;;;;;0.10;0.10;;;;;;;;;;5024622;28;20192;-72
2021/12/20 12:20:51;;;;;;;0.10;0.10;;;;;;;;;;5024462;28;20208;-71
2021/12/20 12:23:18;;;;;;;0.20;0.20;;;;;;;;;;5032300;28;20224;-72
2021/12/20 12:25:49;;;;;;;0.20;0.20;;;;;;;;;;5043913;28;20214;-72
2021/12/20 12:28:15;;;;;;;0.20;0.20;;;;;;;;;;5043513;28;20216;-74
2021/12/20 12:30:43;;;;;;;0.20;0.20;;;;;;;;;;5044038;28;20246;-72
2021/12/20 12:33:23;;;;;;;0.20;0.20;;;;;;;;;;5043824;28;20246;-72
2021/12/20 12:35:54;;;;;;;0.20;0.20;;;;;;;;;;5044075;28;20366;-74
2021/12/20 12:38:21;;;;;;;0.10;0.10;;;;;;;;;;5043922;28;20208;-72
2021/12/20 12:40:50;;;;;;;0.10;0.10;;;;;;;;;;5043488;28;20282;-72
2021/12/20 12:43:17;;;;;;;0.20;0.20;;;;;;;;;;5043924;28;20212;-66
2021/12/20 12:45:50;;;;;;;0.10;0.10;;;;;;;;;;5034697;28;20298;-68
2021/12/20 12:48:34;;;;;;;0.10;0.10;;;;;;;;;;5023797;28;20236;-68
2021/12/20 12:51:04;;;;;;;0.10;0.10;;;;;;;;;;5023223;28;20246;-68
2021/12/20 12:53:40;;;;;;;0.10;0.10;;;;;;;;;;5023668;28;20203;-68
2021/12/20 12:56:38;;;;;;;0.20;0.20;;;;;;;;;;5023683;28;20223;-68
2021/12/20 12:59:24;;;;;;;0.13;0.13;;;;;;;;;;4963414;29;20483;-67
2021/12/20 13:01:51;;;;;;;0.10;0.10;;;;;;;;;;5020329;28;20510;-68
2021/12/20 13:04:19;;;;;;;0.10;0.10;;;;;;;;;;5043099;28;20207;-68
2021/12/20 13:06:45;;;;;;;0.10;0.10;;;;;;;;;;5042749;28;20245;-70
2021/12/20 13:09:11;;;;;;;0.17;0.17;;;;;;;;;;5043432;28;20519;-67
2021/12/20 13:11:38;;;;;;;0.10;0.10;;;;;;;;;;5043266;28;20214;-68
2021/12/20 13:14:07;;;;;;;0.10;0.10;;;;;;;;;;5043560;28;20233;-68
2021/12/20 13:16:35;;;;;;;0.20;0.20;;;;;;;;;;5043060;28;20402;-67
2021/12/20 13:19:01;;;;;;;0.13;0.13;;;;;;;;;;5043195;28;20403;-68
2021/12/20 13:21:48;;;;;;;0.10;0.10;;;;;;;;;;5042964;28;20214;-68
2021/12/20 13:24:15;;;;;;;0.47;0.47;;;;;;;;;;5043096;28;20203;-69
2021/12/20 13:26:41;;;;;;;0.20;0.20;;;;;;;;;;5043218;28;20272;-68
2021/12/20 13:29:07;;;;;;;0.10;0.10;;;;;;;;;;5043330;28;20267;-68
2021/12/20 13:31:33;;;;;;;0.20;0.20;;;;;;;;;;5043290;28;20211;-68
2021/12/20 13:34:03;;;;;;;0.20;0.20;;;;;;;;;;5042745;28;20273;-68
2021/12/20 13:36:34;;;;;;;0.10;0.10;;;;;;;;;;5043345;28;20214;-67
2021/12/20 13:39:00;;;;;;;0.10;0.10;;;;;;;;;;5042797;28;20430;-67
2021/12/20 13:41:27;;;;;;;0.10;0.10;;;;;;;;;;5039851;28;20244;-68
2021/12/20 13:43:57;;;;;;;0.20;0.20;;;;;;;;;;5043170;28;20561;-68
2021/12/20 13:46:28;;;;;;;0.10;0.10;;;;;;;;;;5030411;28;20262;-68
2021/12/20 13:48:56;;;;;;;0.20;0.20;;;;;;;;;;5027663;28;20423;-69
2021/12/20 13:51:23;;;;;;;0.20;0.20;;;;;;;;;;5032211;28;20255;-68
2021/12/20 13:53:51;;;;;;;0.20;0.20;;;;;;;;;;5027410;28;20200;-69
2021/12/20 13:56:17;;;;;;;0.10;0.10;;;;;;;;;;5023990;28;20207;-68
2021/12/20 13:58:46;;;;;;;0.20;0.20;;;;;;;;;;5026162;28;20207;-69
2021/12/20 14:01:12;;;;;;;0.20;0.20;;;;;;;;;;5022976;28;20200;-69
2021/12/20 14:03:39;;;;;;;0.20;0.20;;;;;;;;;;5023160;28;20437;-68
2021/12/20 14:06:05;;;;;;;0.20;0.20;;;;;;;;;;5022847;28;20236;-69
2021/12/20 14:08:32;;;;;;;0.10;0.10;;;;;;;;;;5022914;28;20232;-72
2021/12/20 14:10:59;;;;;;;0.20;0.20;;;;;;;;;;5034073;28;20281;-69
2021/12/20 14:13:26;;;;;;;0.13;0.13;;;;;;;;;;5033937;28;20397;-69
2021/12/20 14:15:57;;;;;;;0.10;0.10;;;;;;;;;;5039257;28;20206;-68
2021/12/20 14:18:31;;;;;;;0.20;0.20;;;;;;;;;;5036771;28;20419;-68
2021/12/20 14:21:01;;;;;;;0.20;0.20;;;;;;;;;;5029173;28;20386;-67
2021/12/20 14:23:28;;;;;;;0.10;0.10;;;;;;;;;;5036964;28;20336;-68
2021/12/20 14:26:03;;;;;;;0.13;0.13;;;;;;;;;;5030428;28;20209;-68
2021/12/20 14:28:30;;;;;;;0.10;0.10;;;;;;;;;;5025997;28;20222;-68
2021/12/20 14:30:58;;;;;;;0.20;0.20;;;;;;;;;;5031914;28;20220;-69
2021/12/20 14:33:26;;;;;;;0.10;0.10;;;;;;;;;;5033283;28;20258;-68
2021/12/20 14:35:54;;;;;;;0.10;0.10;;;;;;;;;;5030815;28;20246;-68
2021/12/20 14:38:28;;;;;;;0.23;0.23;;;;;;;;;;5036467;28;20201;-68
2021/12/20 14:40:54;;;;;;;0.10;0.10;;;;;;;;;;5035909;28;20431;-69
2021/12/20 14:43:28;;;;;;;0.20;0.20;;;;;;;;;;5038160;28;20243;-69
2021/12/20 14:46:09;;;;;;;0.10;0.10;;;;;;;;;;5042174;28;20257;-68
2021/12/20 14:48:40;;;;;;;0.20;0.20;;;;;;;;;;5042268;28;20248;-69
2021/12/20 14:51:13;;;;;;;0.20;0.20;;;;;;;;;;5042994;28;20352;-69
2021/12/20 14:53:39;;;;;;;0.20;0.20;;;;;;;;;;5046175;28;20411;-69
2021/12/20 14:56:07;;;;;;;0.20;0.20;;;;;;;;;;5046093;28;20250;-68